Terminal Aerodrome Forecast
Issued by NWS Duluth, MN

Home | Current Version | Previous Version | Text Only | Print | Product List | Glossary On
Versions: 1 2 3 4 5 6 7 8 9 10 11 12 13 14 15 16 17 18 19 20 21 22 23 24 25 26 27 28 29
611
FTUS43 KDLH 292336
TAFINL
TAF
KINL 292336Z 3000/3024 12004KT P6SM OVC035
     FM300300 10002KT P6SM SCT035
     FM300900 12002KT P6SM SCT010
      TEMPO 3010/3014 1SM BR BKN010
     FM301700 12006KT P6SM SCT035=

USA.gov is the U.S. government's official web portal to all federal, state and local government web resources and services.